Time;durP1;ratioP1;P1;durP2;ratioP2;P2;SDS_P1;SDS_P2;PMS_P1;PMS_P2;Temp;Humidity;BMP_temperature;BMP_pressure;BME280_temperature;BME280_humidity;BME280_pressure;Samples;Min_cycle;Max_cycle;Signal;HPM_P1;HPM_P2
2023/09/19 00:00:21;;;;;;;10.17;2.60;;;17.80;99.90;;;;;;4999853;28;21068;-65
2023/09/19 00:02:53;;;;;;;4.50;1.90;;;17.80;99.90;;;;;;5004520;28;20469;-65
2023/09/19 00:05:23;;;;;;;9.60;2.37;;;17.90;99.90;;;;;;5004303;28;20484;-65
2023/09/19 00:07:52;;;;;;;6.17;2.10;;;17.80;99.90;;;;;;5003916;28;20489;-64
2023/09/19 00:10:19;;;;;;;2.50;1.50;;;17.90;99.90;;;;;;5023903;28;20553;-64
2023/09/19 00:12:46;;;;;;;3.80;2.23;;;17.90;99.90;;;;;;5021921;28;20505;-65
2023/09/19 00:15:17;;;;;;;2.77;1.43;;;17.80;99.90;;;;;;5021468;28;20915;-66
2023/09/19 00:17:44;;;;;;;3.33;1.80;;;17.90;99.90;;;;;;5024263;28;20479;-65
2023/09/19 00:20:13;;;;;;;3.83;1.37;;;18.00;99.90;;;;;;5012978;28;20592;-65
2023/09/19 00:22:41;;;;;;;3.90;1.93;;;18.00;99.90;;;;;;5020753;28;20597;-65
2023/09/19 00:25:09;;;;;;;1.73;1.07;;;17.90;99.90;;;;;;5019318;28;20634;-65
2023/09/19 00:27:39;;;;;;;2.77;1.60;;;18.00;99.90;;;;;;5023444;28;20474;-65
2023/09/19 00:30:14;;;;;;;1.93;1.10;;;18.00;99.90;;;;;;5030721;28;21031;-65
2023/09/19 00:32:42;;;;;;;2.73;1.17;;;18.10;99.90;;;;;;5020912;28;20499;-65
2023/09/19 00:35:10;;;;;;;3.60;1.57;;;18.10;99.90;;;;;;5025260;28;21078;-65
2023/09/19 00:37:37;;;;;;;1.73;0.90;;;18.00;99.90;;;;;;5025773;28;20512;-64
2023/09/19 00:40:05;;;;;;;2.30;1.23;;;18.10;99.90;;;;;;5030892;28;20933;-65
2023/09/19 00:42:33;;;;;;;2.47;1.23;;;18.10;99.90;;;;;;5024471;28;20520;-65
2023/09/19 00:45:03;;;;;;;2.50;1.50;;;18.20;99.90;;;;;;5024142;28;20571;-65
2023/09/19 00:47:30;;;;;;;2.20;1.40;;;18.30;99.90;;;;;;5026482;28;20491;-64
2023/09/19 00:49:59;;;;;;;1.97;1.20;;;18.20;99.90;;;;;;5028695;28;20549;-65
2023/09/19 00:52:26;;;;;;;3.80;1.13;;;18.20;99.90;;;;;;5023948;28;21001;-64
2023/09/19 00:54:53;;;;;;;4.20;1.83;;;18.20;99.90;;;;;;5020400;28;20483;-65
2023/09/19 00:57:22;;;;;;;2.90;1.30;;;18.20;99.90;;;;;;5022170;28;20564;-65
2023/09/19 00:59:51;;;;;;;6.37;3.43;;;18.30;99.90;;;;;;5024522;28;20515;-65
2023/09/19 01:02:18;;;;;;;9.43;2.27;;;18.30;99.90;;;;;;5027962;28;20499;-65
2023/09/19 01:04:46;;;;;;;3.90;1.77;;;18.40;99.90;;;;;;5009183;28;20488;-64
2023/09/19 01:07:15;;;;;;;2.67;2.07;;;18.50;99.90;;;;;;5034678;28;20544;-65
2023/09/19 01:09:42;;;;;;;4.10;1.77;;;18.40;99.90;;;;;;5021437;28;20482;-65
2023/09/19 01:12:10;;;;;;;3.67;2.10;;;18.30;99.90;;;;;;5022478;28;20483;-65
2023/09/19 01:14:47;;;;;;;3.47;2.47;;;18.40;99.90;;;;;;5024969;28;20485;-65
2023/09/19 01:17:22;;;;;;;2.00;1.20;;;18.30;99.90;;;;;;5024346;28;20492;-65
2023/09/19 01:20:24;;;;;;;4.00;2.23;;;18.30;99.90;;;;;;5023063;28;20862;-64
2023/09/19 01:23:02;;;;;;;3.47;2.23;;;18.20;99.90;;;;;;5018771;28;20524;-65
2023/09/19 01:26:03;;;;;;;2.17;1.63;;;18.10;99.90;;;;;;5005694;28;20538;-63
2023/09/19 01:28:38;;;;;;;2.50;1.33;;;18.00;99.90;;;;;;5020793;28;20855;-65
2023/09/19 01:31:11;;;;;;;5.80;1.47;;;17.90;99.90;;;;;;5017386;28;20941;-64
2023/09/19 01:34:01;;;;;;;3.90;1.47;;;17.90;99.90;;;;;;5014709;28;20484;-65
2023/09/19 01:36:30;;;;;;;2.87;1.90;;;17.90;99.90;;;;;;5018548;28;20468;-65
2023/09/19 01:38:58;;;;;;;3.97;1.30;;;17.90;99.90;;;;;;5003807;28;20573;-65
2023/09/19 01:41:34;;;;;;;3.20;1.47;;;17.90;99.90;;;;;;5022845;28;20488;-65
2023/09/19 01:44:07;;;;;;;1.90;1.20;;;18.00;99.90;;;;;;5007108;28;20476;-65
2023/09/19 01:46:40;;;;;;;2.20;1.50;;;18.00;99.90;;;;;;5008048;28;20570;-66
2023/09/19 01:49:20;;;;;;;4.80;1.40;;;18.10;99.90;;;;;;5010240;28;20593;-65
2023/09/19 01:51:55;;;;;;;2.00;1.40;;;18.10;99.90;;;;;;5021806;28;20495;-66
2023/09/19 01:54:29;;;;;;;2.70;2.07;;;18.10;99.90;;;;;;5025081;28;20669;-63
2023/09/19 01:57:04;;;;;;;2.40;2.10;;;18.00;99.90;;;;;;5019866;28;20464;-66
2023/09/19 01:59:40;;;;;;;5.23;2.07;;;18.00;99.90;;;;;;5019733;28;20967;-65
2023/09/19 02:02:09;;;;;;;2.70;1.73;;;18.00;99.90;;;;;;5012838;28;20491;-66
2023/09/19 02:04:36;;;;;;;3.40;2.27;;;18.00;99.90;;;;;;5025316;28;20481;-65
2023/09/19 02:07:05;;;;;;;4.83;2.10;;;17.90;99.90;;;;;;5025026;28;20831;-65
2023/09/19 02:09:33;;;;;;;2.23;1.53;;;17.90;99.90;;;;;;5017005;28;21241;-65
2023/09/19 02:12:00;;;;;;;2.30;1.73;;;17.90;99.90;;;;;;5036290;28;20487;-65
2023/09/19 02:14:29;;;;;;;4.10;2.33;;;17.90;99.90;;;;;;5032589;28;20497;-64
2023/09/19 02:16:56;;;;;;;3.60;1.80;;;17.90;99.90;;;;;;5030549;28;21104;-65
2023/09/19 02:19:24;;;;;;;3.40;2.20;;;17.90;99.90;;;;;;5029125;28;20533;-64
2023/09/19 02:21:51;;;;;;;6.00;2.50;;;17.90;99.90;;;;;;5026905;28;20479;-64
2023/09/19 02:24:18;;;;;;;4.97;2.33;;;17.90;99.90;;;;;;5025298;28;20485;-64
2023/09/19 02:26:45;;;;;;;2.53;1.60;;;17.80;99.90;;;;;;5015889;28;20476;-65
2023/09/19 02:29:13;;;;;;;2.57;1.90;;;17.80;99.90;;;;;;5029675;28;20488;-65
2023/09/19 02:31:40;;;;;;;2.70;2.07;;;17.90;99.90;;;;;;5022696;28;20894;-66
2023/09/19 02:34:08;;;;;;;2.57;2.30;;;17.90;99.90;;;;;;5030150;28;20480;-65
2023/09/19 02:36:38;;;;;;;2.97;1.90;;;17.90;99.90;;;;;;5022750;28;20507;-65
2023/09/19 02:39:08;;;;;;;5.40;1.90;;;17.90;99.90;;;;;;5025905;28;20480;-65
2023/09/19 02:41:35;;;;;;;2.20;1.70;;;17.90;99.90;;;;;;5022924;28;20508;-65
2023/09/19 02:44:02;;;;;;;2.23;1.67;;;17.90;99.90;;;;;;5038158;28;20896;-65
2023/09/19 02:46:29;;;;;;;4.27;2.77;;;17.90;99.90;;;;;;5027163;28;20480;-65
2023/09/19 02:48:56;;;;;;;4.03;2.20;;;17.80;99.90;;;;;;5047901;28;20486;-65
2023/09/19 02:51:23;;;;;;;2.23;1.67;;;17.80;99.90;;;;;;5016455;28;20538;-65
2023/09/19 02:53:53;;;;;;;6.80;2.23;;;17.80;99.90;;;;;;5029788;28;20479;-65
2023/09/19 02:56:20;;;;;;;3.50;2.63;;;17.70;99.90;;;;;;5030309;28;20483;-65
2023/09/19 02:58:48;;;;;;;3.73;1.80;;;17.60;99.90;;;;;;5016054;28;20588;-65
2023/09/19 03:01:15;;;;;;;5.10;1.80;;;17.50;99.90;;;;;;5023098;28;20487;-65
2023/09/19 03:03:42;;;;;;;4.83;2.10;;;17.50;99.90;;;;;;5022837;28;20474;-64
2023/09/19 03:06:09;;;;;;;4.40;2.10;;;17.50;99.90;;;;;;5032152;28;20489;-65
2023/09/19 03:08:36;;;;;;;2.70;2.00;;;17.60;99.90;;;;;;5016596;28;20471;-65
2023/09/19 03:11:07;;;;;;;2.73;1.60;;;17.60;99.90;;;;;;5039748;28;20501;-64
2023/09/19 03:13:36;;;;;;;3.03;1.60;;;17.50;99.90;;;;;;5005018;28;20472;-64
2023/09/19 03:16:05;;;;;;;2.17;1.37;;;17.50;99.90;;;;;;5010925;28;21297;-64
2023/09/19 03:18:32;;;;;;;2.37;1.40;;;17.40;99.90;;;;;;5017920;28;20485;-65
2023/09/19 03:21:00;;;;;;;2.40;1.60;;;17.20;99.90;;;;;;5006647;28;20486;-65
2023/09/19 03:23:28;;;;;;;2.00;1.60;;;17.30;99.90;;;;;;5010692;28;20488;-64
2023/09/19 03:25:55;;;;;;;2.43;1.57;;;17.20;99.90;;;;;;5026173;28;20559;-65
2023/09/19 03:28:24;;;;;;;3.40;2.07;;;17.30;99.90;;;;;;5029553;28;20491;-65
2023/09/19 03:31:00;;;;;;;6.53;2.17;;;17.20;99.90;;;;;;5034117;28;20488;-64
2023/09/19 03:33:27;;;;;;;2.33;1.60;;;17.30;99.90;;;;;;5022312;28;21012;-65
2023/09/19 03:35:54;;;;;;;5.23;2.50;;;17.20;99.90;;;;;;5014360;28;20554;-64
2023/09/19 03:38:21;;;;;;;5.33;1.80;;;17.20;99.90;;;;;;5008033;28;20649;-64
2023/09/19 03:40:48;;;;;;;4.20;2.37;;;17.10;99.90;;;;;;5037850;28;20848;-64
2023/09/19 03:43:15;;;;;;;4.40;1.83;;;17.00;99.90;;;;;;4996017;28;20487;-65
2023/09/19 03:45:43;;;;;;;3.80;1.80;;;17.00;99.90;;;;;;5028083;28;20484;-64
2023/09/19 03:48:10;;;;;;;2.80;2.10;;;16.90;99.90;;;;;;5022084;28;20485;-64
2023/09/19 03:50:37;;;;;;;5.27;2.13;;;16.90;99.90;;;;;;5023148;28;20547;-64
2023/09/19 03:53:04;;;;;;;1.97;1.30;;;16.90;99.90;;;;;;5027742;28;20848;-64
2023/09/19 03:55:31;;;;;;;3.07;1.90;;;17.00;99.90;;;;;;5019924;28;20477;-64
2023/09/19 03:57:57;;;;;;;2.77;2.30;;;17.00;99.90;;;;;;5032042;28;20499;-64
2023/09/19 04:00:26;;;;;;;3.07;1.80;;;16.90;99.90;;;;;;5015101;28;21365;-65
2023/09/19 04:02:56;;;;;;;3.03;2.13;;;16.90;99.90;;;;;;5023672;28;20480;-64
2023/09/19 04:05:22;;;;;;;2.20;1.70;;;16.90;99.90;;;;;;5016547;28;20509;-65
2023/09/19 04:07:49;;;;;;;4.30;2.07;;;17.00;99.90;;;;;;5028561;28;20514;-64
2023/09/19 04:10:17;;;;;;;9.43;2.20;;;16.90;99.90;;;;;;5017842;28;21093;-64
2023/09/19 04:12:52;;;;;;;2.03;1.57;;;16.90;99.90;;;;;;5033587;28;20469;-65
2023/09/19 04:15:18;;;;;;;4.83;2.10;;;16.90;99.90;;;;;;5017786;28;20568;-65
2023/09/19 04:17:45;;;;;;;2.83;1.50;;;16.90;99.90;;;;;;5018643;28;20843;-64
2023/09/19 04:20:14;;;;;;;2.80;1.60;;;16.90;99.90;;;;;;5030752;28;20468;-65
2023/09/19 04:22:40;;;;;;;3.80;2.50;;;16.90;99.90;;;;;;5020092;28;20550;-64
2023/09/19 04:25:08;;;;;;;7.70;1.90;;;16.90;99.90;;;;;;5027020;28;20480;-65
2023/09/19 04:27:35;;;;;;;4.20;2.27;;;16.90;99.90;;;;;;5010815;28;20476;-65
2023/09/19 04:30:10;;;;;;;2.40;2.07;;;16.90;99.90;;;;;;5012897;28;20485;-66
2023/09/19 04:32:38;;;;;;;5.60;2.07;;;16.90;99.90;;;;;;5008390;28;20472;-64
2023/09/19 04:35:08;;;;;;;3.33;2.60;;;16.80;99.90;;;;;;5042732;28;20492;-65
2023/09/19 04:37:38;;;;;;;2.73;2.40;;;16.90;99.90;;;;;;5004551;28;20489;-65
2023/09/19 04:40:08;;;;;;;3.70;2.30;;;17.00;99.90;;;;;;5039103;28;20533;-65
2023/09/19 04:42:37;;;;;;;2.23;2.00;;;17.00;99.90;;;;;;5014142;28;20979;-65
2023/09/19 04:45:04;;;;;;;3.90;1.97;;;16.80;99.90;;;;;;5041814;28;20476;-66
2023/09/19 04:47:31;;;;;;;15.97;3.20;;;16.80;99.90;;;;;;5027584;28;20486;-65
2023/09/19 04:49:59;;;;;;;3.63;2.03;;;16.80;99.90;;;;;;5016573;28;20886;-65
2023/09/19 04:52:26;;;;;;;4.47;2.33;;;16.80;99.90;;;;;;5021659;28;22416;-65
2023/09/19 04:54:54;;;;;;;1.90;1.30;;;16.80;99.90;;;;;;5021258;28;20538;-65
2023/09/19 04:57:20;;;;;;;2.53;1.90;;;16.80;99.90;;;;;;5023586;28;20492;-65
2023/09/19 04:59:47;;;;;;;3.50;2.40;;;16.70;99.90;;;;;;5016817;28;20484;-65
2023/09/19 05:02:14;;;;;;;3.83;1.67;;;16.80;99.90;;;;;;5027145;28;20472;-65
2023/09/19 05:04:41;;;;;;;3.70;2.00;;;16.70;99.90;;;;;;5021816;28;20472;-65
2023/09/19 05:07:07;;;;;;;6.43;2.07;;;16.70;99.90;;;;;;5020168;28;20475;-64
2023/09/19 05:09:37;;;;;;;3.33;1.27;;;16.70;99.90;;;;;;5019865;28;20503;-65
2023/09/19 05:12:06;;;;;;;7.10;1.70;;;16.70;99.90;;;;;;5018605;28;20908;-65
2023/09/19 05:14:33;;;;;;;8.20;2.60;;;16.80;99.90;;;;;;5027962;28;20823;-65
2023/09/19 05:17:00;;;;;;;9.10;1.50;;;16.70;99.90;;;;;;5008884;28;20849;-64
2023/09/19 05:19:27;;;;;;;4.47;2.20;;;16.80;99.90;;;;;;5038751;28;20510;-65
2023/09/19 05:21:55;;;;;;;12.43;2.13;;;16.70;99.90;;;;;;5024768;28;21074;-66
2023/09/19 05:24:23;;;;;;;2.30;1.30;;;16.60;99.90;;;;;;5024043;28;20889;-65
2023/09/19 05:26:50;;;;;;;2.27;1.50;;;16.50;99.90;;;;;;5021910;28;20481;-64
2023/09/19 05:29:18;;;;;;;4.77;1.67;;;16.60;99.90;;;;;;5015370;28;21030;-66
2023/09/19 05:31:44;;;;;;;4.07;1.60;;;16.50;99.90;;;;;;5022301;28;20823;-65
2023/09/19 05:34:11;;;;;;;2.97;1.53;;;16.50;99.90;;;;;;5017636;28;20494;-64
2023/09/19 05:36:39;;;;;;;1.97;1.30;;;16.60;99.90;;;;;;5017859;28;20491;-65
2023/09/19 05:39:09;;;;;;;2.03;1.40;;;16.70;99.90;;;;;;5019301;28;20486;-65
2023/09/19 05:41:36;;;;;;;1.90;1.30;;;16.60;99.90;;;;;;5021357;28;20469;-64
2023/09/19 05:44:03;;;;;;;4.80;1.50;;;16.70;99.90;;;;;;5005044;28;20973;-65
2023/09/19 05:46:31;;;;;;;1.70;0.90;;;16.60;99.90;;;;;;5017012;28;20491;-65
2023/09/19 05:48:58;;;;;;;5.33;1.47;;;16.70;99.90;;;;;;5019932;28;21200;-65
2023/09/19 05:51:28;;;;;;;8.53;1.97;;;16.70;99.90;;;;;;5013923;28;20489;-65
2023/09/19 05:53:55;;;;;;;4.40;1.70;;;16.60;99.90;;;;;;5032515;28;20476;-64
2023/09/19 05:56:22;;;;;;;4.13;1.23;;;16.60;99.90;;;;;;5021581;28;20510;-64
2023/09/19 05:58:51;;;;;;;3.20;2.13;;;16.60;99.90;;;;;;5015398;28;21036;-66
2023/09/19 06:01:18;;;;;;;2.30;1.47;;;16.60;99.90;;;;;;5030943;28;20500;-65
2023/09/19 06:03:46;;;;;;;4.17;2.00;;;16.60;99.90;;;;;;5027243;28;20846;-66
2023/09/19 06:06:14;;;;;;;2.30;1.40;;;16.50;99.90;;;;;;5011619;28;20491;-65
2023/09/19 06:08:41;;;;;;;2.10;1.70;;;16.50;99.90;;;;;;5022228;28;20994;-65
2023/09/19 06:11:11;;;;;;;6.17;1.60;;;16.60;99.90;;;;;;5013325;28;20800;-65
2023/09/19 06:13:39;;;;;;;2.33;1.13;;;16.60;99.90;;;;;;5013947;28;20500;-65
2023/09/19 06:16:05;;;;;;;2.20;1.77;;;16.80;99.90;;;;;;5017716;28;20480;-65
2023/09/19 06:18:33;;;;;;;3.70;1.40;;;16.70;99.90;;;;;;5010810;28;20491;-65
2023/09/19 06:21:05;;;;;;;2.40;1.60;;;16.80;99.90;;;;;;5025689;28;20915;-64
2023/09/19 06:23:32;;;;;;;3.90;1.60;;;16.90;99.90;;;;;;5025327;28;20478;-65
2023/09/19 06:25:58;;;;;;;7.17;1.77;;;16.90;99.90;;;;;;5025312;28;20480;-64
2023/09/19 06:28:27;;;;;;;2.00;1.47;;;16.90;99.90;;;;;;5018265;28;20472;-65
2023/09/19 06:30:54;;;;;;;3.67;1.63;;;16.90;99.90;;;;;;5028627;28;20561;-65
2023/09/19 06:33:22;;;;;;;4.03;1.80;;;16.90;99.90;;;;;;5015043;28;20470;-65
2023/09/19 06:35:49;;;;;;;2.20;1.27;;;16.90;99.90;;;;;;5025564;28;20561;-65
2023/09/19 06:38:19;;;;;;;4.47;1.33;;;17.00;99.90;;;;;;5029348;28;20492;-65
2023/09/19 06:40:45;;;;;;;4.63;1.60;;;17.00;99.90;;;;;;5020785;28;20552;-65
2023/09/19 06:43:14;;;;;;;5.73;2.00;;;17.00;99.90;;;;;;5034848;28;20477;-65
2023/09/19 06:45:41;;;;;;;16.40;1.70;;;16.90;99.90;;;;;;5023841;28;20507;-65
2023/09/19 06:48:09;;;;;;;4.80;1.90;;;16.90;99.90;;;;;;5035225;28;20698;-65
2023/09/19 06:50:36;;;;;;;6.03;1.50;;;16.90;99.90;;;;;;5024703;28;20888;-65
2023/09/19 06:53:02;;;;;;;2.73;1.63;;;16.90;99.90;;;;;;5024273;28;20483;-65
2023/09/19 06:55:31;;;;;;;2.40;1.40;;;17.00;99.90;;;;;;5023499;28;20476;-65
2023/09/19 06:57:58;;;;;;;5.23;1.30;;;17.00;99.90;;;;;;5013731;28;20513;-64
2023/09/19 07:00:25;;;;;;;2.43;1.70;;;16.90;99.90;;;;;;5034819;28;20511;-65
2023/09/19 07:03:00;;;;;;;2.57;1.63;;;16.90;99.90;;;;;;5027725;28;20485;-66
2023/09/19 07:05:28;;;;;;;1.90;1.43;;;16.90;99.90;;;;;;5015576;28;20473;-65
2023/09/19 07:07:55;;;;;;;1.97;1.43;;;16.90;99.90;;;;;;5029856;28;20485;-66
2023/09/19 07:10:23;;;;;;;2.57;1.40;;;17.00;99.90;;;;;;5025991;28;21044;-65
2023/09/19 07:12:57;;;;;;;6.27;1.80;;;17.00;99.90;;;;;;5004151;28;20566;-65
2023/09/19 07:15:24;;;;;;;4.50;1.80;;;17.00;99.90;;;;;;5039190;28;20477;-66
2023/09/19 07:17:51;;;;;;;5.00;1.90;;;17.00;99.90;;;;;;5024297;28;20485;-65
2023/09/19 07:20:18;;;;;;;3.83;1.30;;;17.20;99.90;;;;;;5015764;28;20487;-65
2023/09/19 07:22:46;;;;;;;2.40;1.50;;;17.40;99.90;;;;;;5014800;28;20473;-65
2023/09/19 07:25:13;;;;;;;4.83;1.80;;;17.40;99.90;;;;;;5024340;28;20588;-65
2023/09/19 07:27:40;;;;;;;2.83;1.73;;;17.40;99.90;;;;;;5020816;28;20890;-66
2023/09/19 07:30:11;;;;;;;2.27;1.80;;;17.50;99.90;;;;;;5025077;28;20480;-66
2023/09/19 07:32:38;;;;;;;3.90;2.20;;;17.50;99.90;;;;;;5021412;28;20479;-66
2023/09/19 07:35:06;;;;;;;2.30;1.50;;;17.70;99.90;;;;;;5021523;28;21055;-66
2023/09/19 07:37:33;;;;;;;4.40;3.83;;;17.90;99.90;;;;;;5026339;28;20582;-65
2023/09/19 07:40:00;;;;;;;3.37;1.43;;;17.70;99.90;;;;;;5023995;28;20520;-65
2023/09/19 07:42:27;;;;;;;4.00;2.50;;;17.80;99.90;;;;;;5023827;28;20976;-66
2023/09/19 07:44:54;;;;;;;2.60;1.53;;;17.80;99.90;;;;;;5023147;28;20477;-65
2023/09/19 07:47:23;;;;;;;2.80;1.47;;;18.20;99.90;;;;;;5031115;28;20498;-66
2023/09/19 07:49:50;;;;;;;4.07;1.43;;;18.40;99.90;;;;;;5020364;28;20488;-65
2023/09/19 07:52:17;;;;;;;3.50;1.77;;;18.60;99.90;;;;;;5022219;28;20492;-65
2023/09/19 07:54:44;;;;;;;3.27;1.60;;;18.60;99.90;;;;;;5020019;28;20543;-66
2023/09/19 07:57:11;;;;;;;5.10;1.63;;;18.50;99.90;;;;;;5026526;28;20473;-66
2023/09/19 07:59:38;;;;;;;4.10;1.63;;;18.30;99.90;;;;;;5017047;28;20921;-65
2023/09/19 08:02:08;;;;;;;3.70;1.67;;;18.20;99.90;;;;;;5028359;28;20512;-66
2023/09/19 08:04:36;;;;;;;3.63;1.57;;;18.20;99.90;;;;;;5023780;28;21192;-65
2023/09/19 08:07:04;;;;;;;2.30;1.37;;;18.50;99.90;;;;;;5026686;28;20472;-66
2023/09/19 08:09:33;;;;;;;2.57;1.13;;;18.50;99.80;;;;;;5026029;28;20479;-65
2023/09/19 08:12:03;;;;;;;5.40;2.00;;;18.60;99.90;;;;;;5020648;28;20480;-65
2023/09/19 08:14:30;;;;;;;4.50;1.80;;;18.70;99.90;;;;;;5013139;28;20651;-66
2023/09/19 08:16:58;;;;;;;4.77;1.77;;;18.70;99.90;;;;;;5032251;28;20991;-65
2023/09/19 08:19:28;;;;;;;3.73;1.53;;;18.90;99.60;;;;;;5017364;28;20484;-66
2023/09/19 08:21:58;;;;;;;2.43;1.43;;;19.00;99.40;;;;;;5020862;28;20847;-65
2023/09/19 08:24:28;;;;;;;2.00;1.53;;;19.10;98.60;;;;;;5022784;28;20485;-65
2023/09/19 08:26:55;;;;;;;2.47;1.47;;;19.10;98.70;;;;;;5023310;28;21028;-66
2023/09/19 08:29:27;;;;;;;4.03;1.90;;;18.90;99.00;;;;;;5017191;28;20776;-65
2023/09/19 08:31:54;;;;;;;3.70;1.90;;;18.80;99.70;;;;;;5039019;28;20490;-66
2023/09/19 08:34:21;;;;;;;3.53;1.27;;;18.80;98.90;;;;;;5018971;28;20485;-64
2023/09/19 08:36:48;;;;;;;2.57;1.40;;;18.60;98.50;;;;;;5015465;28;20480;-65
2023/09/19 08:39:17;;;;;;;7.00;2.20;;;18.60;99.10;;;;;;5030710;28;20975;-66
2023/09/19 08:41:43;;;;;;;2.83;1.40;;;18.30;99.10;;;;;;5032603;28;20763;-64
2023/09/19 08:44:10;;;;;;;5.37;1.20;;;18.40;99.30;;;;;;5014991;28;20485;-65
2023/09/19 08:46:42;;;;;;;3.30;1.57;;;18.40;99.00;;;;;;5028832;28;20484;-65
2023/09/19 08:49:19;;;;;;;7.60;2.13;;;18.60;98.60;;;;;;5023562;28;20487;-65
2023/09/19 08:51:46;;;;;;;2.43;1.20;;;18.80;99.10;;;;;;5016520;28;20484;-65
2023/09/19 08:54:22;;;;;;;3.60;1.87;;;18.90;98.40;;;;;;5020794;28;20492;-64
2023/09/19 08:56:51;;;;;;;6.43;1.40;;;19.00;98.80;;;;;;5022144;28;21343;-65
2023/09/19 08:59:24;;;;;;;4.30;1.33;;;19.20;98.80;;;;;;5024119;28;20484;-65
2023/09/19 09:01:53;;;;;;;3.27;1.67;;;19.40;98.20;;;;;;5019554;28;20487;-65
2023/09/19 09:04:20;;;;;;;5.20;0.83;;;19.70;98.50;;;;;;5023627;28;21186;-65
2023/09/19 09:06:48;;;;;;;3.10;1.40;;;19.80;98.70;;;;;;5022279;28;20492;-68
2023/09/19 09:09:15;;;;;;;4.67;1.70;;;19.80;98.50;;;;;;5027722;28;20511;-66
2023/09/19 09:11:44;;;;;;;6.37;1.40;;;19.50;97.50;;;;;;5025604;28;20572;-65
2023/09/19 09:14:11;;;;;;;3.07;1.23;;;19.50;97.50;;;;;;5017125;28;20477;-65
2023/09/19 09:16:38;;;;;;;3.77;1.47;;;19.60;98.10;;;;;;5020539;28;20488;-65
2023/09/19 09:19:06;;;;;;;5.20;1.40;;;19.60;97.40;;;;;;5018250;28;20499;-65
2023/09/19 09:21:36;;;;;;;6.60;1.73;;;19.60;97.40;;;;;;5021804;28;21355;-66
2023/09/19 09:24:27;;;;;;;3.23;1.30;;;19.50;96.90;;;;;;5020746;28;20483;-65
2023/09/19 09:26:57;;;;;;;7.03;1.53;;;19.60;97.30;;;;;;5010596;28;20525;-65
2023/09/19 09:29:49;;;;;;;6.73;1.23;;;19.50;97.10;;;;;;5009574;28;20983;-65
2023/09/19 09:32:20;;;;;;;4.03;1.60;;;19.30;97.10;;;;;;5020180;28;20480;-65
2023/09/19 09:34:50;;;;;;;6.07;1.30;;;19.40;97.50;;;;;;5028072;28;20562;-65
2023/09/19 09:37:19;;;;;;;2.80;1.10;;;19.50;97.50;;;;;;5023462;28;20488;-65
2023/09/19 09:39:56;;;;;;;3.53;1.83;;;19.50;97.40;;;;;;5017136;28;20488;-64
2023/09/19 09:42:38;;;;;;;2.40;0.97;;;19.40;97.30;;;;;;5018633;28;21023;-65
2023/09/19 09:45:28;;;;;;;2.60;1.43;;;19.40;97.00;;;;;;5019092;28;20480;-65
2023/09/19 09:47:55;;;;;;;2.87;1.00;;;19.40;97.30;;;;;;5017868;28;20469;-65
2023/09/19 09:50:29;;;;;;;4.50;1.43;;;19.30;97.70;;;;;;5023009;28;20578;-66
2023/09/19 09:53:03;;;;;;;5.33;1.40;;;19.20;97.40;;;;;;5020094;28;21201;-65
2023/09/19 09:55:30;;;;;;;8.93;1.23;;;19.20;97.80;;;;;;5006373;28;21190;-65
2023/09/19 09:58:18;;;;;;;3.20;1.37;;;19.30;97.80;;;;;;5015393;28;20801;-65
2023/09/19 10:00:57;;;;;;;5.50;1.17;;;19.30;98.00;;;;;;5019232;28;20504;-65
2023/09/19 10:03:32;;;;;;;2.83;1.70;;;19.40;97.60;;;;;;5010485;28;20508;-65
2023/09/19 10:06:00;;;;;;;2.50;1.00;;;19.20;96.50;;;;;;5035622;28;20488;-65
2023/09/19 10:08:30;;;;;;;3.03;1.10;;;19.30;96.60;;;;;;5015417;28;20926;-65
2023/09/19 10:11:05;;;;;;;2.93;1.47;;;19.30;96.50;;;;;;5022670;28;20984;-65
2023/09/19 10:13:37;;;;;;;2.10;1.00;;;19.30;96.60;;;;;;5008438;28;20476;-64
2023/09/19 10:16:10;;;;;;;2.33;0.80;;;19.20;96.50;;;;;;5022013;28;20990;-65
2023/09/19 10:18:39;;;;;;;8.07;1.37;;;19.40;96.80;;;;;;5012198;28;20815;-64
2023/09/19 10:21:08;;;;;;;2.00;1.07;;;19.60;97.20;;;;;;5015998;28;20516;-65
2023/09/19 10:24:08;;;;;;;2.87;1.30;;;19.70;96.70;;;;;;5020195;28;20488;-64
2023/09/19 10:26:36;;;;;;;2.40;1.10;;;19.70;96.20;;;;;;5019861;28;20525;-65
2023/09/19 10:29:10;;;;;;;2.00;0.90;;;19.70;96.50;;;;;;5011934;28;20527;-65
2023/09/19 10:31:40;;;;;;;2.23;1.20;;;19.80;96.10;;;;;;5019555;28;20566;-65
2023/09/19 10:34:09;;;;;;;4.00;1.53;;;19.80;97.00;;;;;;5001394;28;20566;-65
2023/09/19 10:36:38;;;;;;;3.17;1.30;;;20.00;96.60;;;;;;5016347;28;20481;-65
2023/09/19 10:39:08;;;;;;;6.53;1.40;;;20.00;96.00;;;;;;5036358;28;20455;-64
2023/09/19 10:41:37;;;;;;;7.87;1.63;;;20.40;96.30;;;;;;5014581;28;20537;-65
2023/09/19 10:44:06;;;;;;;3.70;0.90;;;20.60;95.90;;;;;;5031046;28;20483;-65
2023/09/19 10:46:33;;;;;;;3.03;1.20;;;20.90;96.90;;;;;;5019014;28;20482;-65
2023/09/19 10:49:01;;;;;;;2.80;1.50;;;21.20;96.10;;;;;;5037668;28;20483;-65
2023/09/19 10:51:32;;;;;;;3.03;1.13;;;21.10;93.50;;;;;;5020965;28;20479;-65
2023/09/19 10:54:06;;;;;;;5.00;1.17;;;20.90;95.00;;;;;;5023821;28;20481;-64
2023/09/19 10:56:36;;;;;;;3.33;1.33;;;20.90;94.30;;;;;;5026474;28;21135;-66
2023/09/19 10:59:10;;;;;;;3.20;1.47;;;20.90;95.20;;;;;;5016750;28;20484;-64
2023/09/19 11:01:47;;;;;;;3.83;1.47;;;21.30;95.30;;;;;;5021466;28;20511;-65
2023/09/19 11:04:30;;;;;;;3.47;1.47;;;21.50;95.40;;;;;;4988068;28;20489;-66
2023/09/19 11:07:10;;;;;;;2.10;1.07;;;21.30;94.20;;;;;;5008111;28;20539;-67
2023/09/19 11:09:45;;;;;;;2.43;1.23;;;20.80;94.00;;;;;;4997937;28;20488;-66
2023/09/19 11:12:13;;;;;;;3.57;1.60;;;20.60;94.30;;;;;;4997916;28;20493;-68
2023/09/19 11:14:42;;;;;;;2.00;1.03;;;20.50;94.20;;;;;;4994539;28;20600;-65
2023/09/19 11:17:45;;;;;;;2.37;1.10;;;20.50;94.00;;;;;;5019564;28;20475;-65
2023/09/19 11:20:26;;;;;;;3.40;1.27;;;20.70;93.60;;;;;;4995313;28;20542;-68
2023/09/19 11:23:22;;;;;;;3.00;0.90;;;20.40;93.60;;;;;;5016904;28;20483;-66
2023/09/19 11:25:51;;;;;;;3.10;1.00;;;20.80;94.80;;;;;;5002440;28;20501;-66
2023/09/19 11:28:32;;;;;;;2.00;0.90;;;21.10;94.30;;;;;;5011778;28;20509;-65
2023/09/19 11:31:55;;;;;;;3.50;1.37;;;21.40;94.90;;;;;;5006681;28;20476;-66
2023/09/19 11:34:47;;;;;;;2.20;1.17;;;21.40;93.80;;;;;;5016582;28;20483;-65
2023/09/19 11:38:10;;;;;;;4.03;1.00;;;21.50;94.00;;;;;;5010043;28;20481;-65
2023/09/19 11:40:37;;;;;;;2.43;1.17;;;21.60;94.10;;;;;;5007552;28;20539;-65
2023/09/19 11:43:40;;;;;;;2.00;0.87;;;21.80;93.30;;;;;;5015417;28;20479;-65
2023/09/19 11:46:08;;;;;;;3.47;1.30;;;21.90;92.60;;;;;;4999828;28;20455;-65
2023/09/19 11:48:45;;;;;;;3.23;1.13;;;22.10;93.50;;;;;;5004566;28;20461;-65
2023/09/19 11:51:22;;;;;;;2.93;1.33;;;22.20;92.90;;;;;;5014042;28;20455;-65
2023/09/19 11:53:50;;;;;;;2.40;1.67;;;22.20;92.90;;;;;;5005305;28;20476;-67
2023/09/19 11:56:18;;;;;;;4.33;1.43;;;22.00;92.60;;;;;;5009875;28;21147;-66
2023/09/19 11:58:45;;;;;;;3.33;1.13;;;21.70;92.60;;;;;;5007877;28;20473;-65
2023/09/19 12:01:20;;;;;;;6.80;1.60;;;21.40;92.20;;;;;;5005238;28;20476;-66
2023/09/19 12:03:49;;;;;;;2.73;1.00;;;21.40;94.20;;;;;;5003173;28;20492;-66
2023/09/19 12:06:17;;;;;;;4.70;1.57;;;21.70;93.60;;;;;;5007512;28;20919;-66
2023/09/19 12:08:46;;;;;;;3.27;1.47;;;21.80;93.60;;;;;;5003442;28;20878;-66
2023/09/19 12:11:15;;;;;;;2.20;1.30;;;21.70;92.20;;;;;;5016144;28;20978;-67
2023/09/19 12:13:46;;;;;;;1.90;0.90;;;21.70;92.10;;;;;;5016166;28;20929;-65
2023/09/19 12:16:21;;;;;;;5.10;1.83;;;21.60;92.60;;;;;;5003316;28;20480;-65
2023/09/19 12:18:50;;;;;;;4.27;1.13;;;21.50;92.90;;;;;;5006202;28;20487;-64
2023/09/19 12:21:24;;;;;;;3.10;1.50;;;21.50;92.50;;;;;;5011233;28;20485;-67
2023/09/19 12:23:59;;;;;;;2.60;1.43;;;21.50;92.40;;;;;;5010042;28;20574;-66
2023/09/19 12:26:28;;;;;;;3.73;1.30;;;21.60;92.30;;;;;;5001778;28;20785;-65
2023/09/19 12:28:55;;;;;;;3.30;0.80;;;21.50;92.10;;;;;;5013295;28;20460;-66
2023/09/19 12:31:26;;;;;;;4.40;1.10;;;21.50;92.70;;;;;;5012412;28;20471;-65
2023/09/19 12:33:56;;;;;;;2.00;1.00;;;21.60;92.40;;;;;;5001530;28;20479;-64
2023/09/19 12:36:29;;;;;;;3.40;1.07;;;21.50;92.80;;;;;;5011915;28;20476;-64
2023/09/19 12:38:58;;;;;;;4.47;1.20;;;21.60;92.20;;;;;;5008678;28;20492;-64
2023/09/19 12:41:25;;;;;;;5.80;1.30;;;21.50;91.80;;;;;;5004851;28;20526;-65
2023/09/19 12:43:53;;;;;;;1.80;1.00;;;21.70;91.90;;;;;;5006965;28;20909;-65
2023/09/19 12:46:25;;;;;;;2.20;0.90;;;21.90;92.60;;;;;;5006674;28;20874;-64
2023/09/19 12:49:18;;;;;;;1.90;1.03;;;22.10;91.50;;;;;;5011561;28;20561;-65
2023/09/19 12:51:46;;;;;;;4.23;1.40;;;22.10;92.20;;;;;;5013039;28;20477;-65
2023/09/19 12:54:14;;;;;;;3.60;1.37;;;21.90;91.90;;;;;;5004807;28;20481;-67
2023/09/19 12:56:44;;;;;;;2.10;1.00;;;21.70;92.10;;;;;;4997325;28;20733;-65
2023/09/19 12:59:13;;;;;;;2.83;1.17;;;21.80;92.30;;;;;;4999015;28;20473;-64
2023/09/19 13:01:43;;;;;;;2.77;1.10;;;22.00;92.20;;;;;;5013731;28;20472;-65